createdAt,value
2019-06-08T00:02:22.940Z,100599.00
2019-06-08T00:04:55.003Z,100606.00
2019-06-08T00:07:24.488Z,100604.00
2019-06-08T00:09:53.985Z,100594.00
2019-06-08T00:12:23.547Z,100579.00
2019-06-08T00:14:53.037Z,100597.00
2019-06-08T00:17:34.325Z,100589.00
2019-06-08T00:19:53.794Z,100602.00
2019-06-08T00:22:23.904Z,100607.00
2019-06-08T00:24:53.441Z,100590.00
2019-06-08T00:27:23.367Z,100596.00
2019-06-08T00:29:53.994Z,100617.00
2019-06-08T00:32:24.516Z,100612.00
2019-06-08T00:34:54.001Z,100602.00
2019-06-08T00:37:23.454Z,100621.00
2019-06-08T00:39:52.936Z,100607.00
2019-06-08T00:42:23.329Z,100594.00
2019-06-08T00:44:52.766Z,100616.00
2019-06-08T00:47:22.627Z,100608.00
2019-06-08T00:49:52.183Z,100589.00
2019-06-08T00:52:21.697Z,100611.00
2019-06-08T00:54:52.594Z,100616.00
2019-06-08T00:57:22.111Z,100619.00
2019-06-08T00:59:51.629Z,100640.00
2019-06-08T01:02:22.454Z,100639.00
2019-06-08T01:04:52.069Z,100642.00
2019-06-08T01:07:22.066Z,100633.00
2019-06-08T01:09:52.611Z,100645.00
2019-06-08T01:12:22.583Z,100638.00
2019-06-08T01:14:52.103Z,100644.00
2019-06-08T01:17:21.571Z,100650.00
2019-06-08T01:19:51.022Z,100668.00
2019-06-08T01:22:21.577Z,100643.00
2019-06-08T01:24:51.148Z,100657.00
2019-06-08T01:27:21.946Z,100646.00
2019-06-08T01:29:51.627Z,100660.00
2019-06-08T01:32:22.215Z,100653.00
2019-06-08T01:34:51.852Z,100668.00
2019-06-08T01:37:21.427Z,100677.00
2019-06-08T01:39:51.996Z,100678.00
2019-06-08T01:42:21.526Z,100682.00
2019-06-08T01:44:51.042Z,100677.00
2019-06-08T01:47:22.032Z,100676.00
2019-06-08T01:49:51.666Z,100697.00
2019-06-08T01:52:22.419Z,100698.00
2019-06-08T01:54:51.971Z,100692.00
2019-06-08T01:57:21.429Z,100706.00
2019-06-08T01:59:50.901Z,100700.00
2019-06-08T02:02:20.489Z,100712.00
2019-06-08T02:04:50.096Z,100710.00
2019-06-08T02:07:19.528Z,100718.00
2019-06-08T02:09:49.023Z,100719.00
2019-06-08T02:12:18.478Z,100719.00
2019-06-08T02:14:47.932Z,100728.00
2019-06-08T02:17:17.417Z,100723.00
2019-06-08T02:19:46.903Z,100732.00
2019-06-08T02:22:16.439Z,100729.00
2019-06-08T02:24:45.917Z,100735.00
2019-06-08T02:27:15.431Z,100739.00
2019-06-08T02:29:44.952Z,100726.00
2019-06-08T02:32:14.409Z,100744.00
2019-06-08T02:34:43.893Z,100736.00
2019-06-08T02:37:13.433Z,100748.00
2019-06-08T02:39:42.908Z,100763.00
2019-06-08T02:42:12.486Z,100761.00
2019-06-08T02:44:41.962Z,100749.00
2019-06-08T02:47:11.486Z,100747.00
2019-06-08T02:49:41.024Z,100770.00
2019-06-08T02:52:11.832Z,100766.00
2019-06-08T02:54:42.589Z,100770.00
2019-06-08T02:57:14.121Z,100786.00
2019-06-08T02:59:45.464Z,100794.00
2019-06-08T03:02:17.649Z,100765.00
2019-06-08T03:04:50.303Z,100777.00
2019-06-08T03:07:22.765Z,100788.00
2019-06-08T03:09:56.385Z,100791.00
2019-06-08T03:12:27.522Z,100778.00
2019-06-08T03:14:58.048Z,100788.00
2019-06-08T03:17:27.555Z,100804.00
2019-06-08T03:19:57.051Z,100798.00
2019-06-08T03:22:26.531Z,100811.00
2019-06-08T03:24:55.985Z,100804.00
2019-06-08T03:27:25.507Z,100812.00
2019-06-08T03:29:54.979Z,100814.00
2019-06-08T03:32:24.433Z,100820.00
2019-06-08T03:34:56.527Z,100817.00
2019-06-08T03:37:25.114Z,100818.00
2019-06-08T03:39:54.611Z,100844.00
2019-06-08T03:42:24.078Z,100826.00
2019-06-08T03:44:53.566Z,100838.00
2019-06-08T03:47:23.052Z,100848.00
2019-06-08T03:49:57.389Z,100832.00
2019-06-08T03:52:23.783Z,100834.00
2019-06-08T03:54:53.298Z,100839.00
2019-06-08T03:57:22.852Z,100839.00
2019-06-08T03:59:52.345Z,100848.00
2019-06-08T04:02:21.816Z,100853.00
2019-06-08T04:04:51.303Z,100869.00
2019-06-08T04:07:20.832Z,100862.00
2019-06-08T04:09:50.324Z,100859.00
2019-06-08T04:12:19.802Z,100866.00
2019-06-08T04:14:50.437Z,100859.00
2019-06-08T04:17:20.015Z,100871.00
2019-06-08T04:20:06.375Z,100875.00
2019-06-08T04:22:20.735Z,100885.00
2019-06-08T04:24:50.676Z,100883.00
2019-06-08T04:27:20.214Z,100879.00
2019-06-08T04:29:53.873Z,100875.00
2019-06-08T04:32:22.998Z,100887.00
2019-06-08T04:34:52.543Z,100889.00
2019-06-08T04:37:21.998Z,100885.00
2019-06-08T04:39:51.505Z,100880.00
2019-06-08T04:42:20.992Z,100889.00
2019-06-08T04:44:50.455Z,100892.00
2019-06-08T04:47:19.992Z,100888.00
2019-06-08T04:49:49.491Z,100905.00
2019-06-08T04:52:18.957Z,100900.00
2019-06-08T04:54:49.789Z,100914.00
2019-06-08T04:57:19.462Z,100899.00
2019-06-08T04:59:50.411Z,100916.00
2019-06-08T05:02:20.171Z,100910.00
2019-06-08T05:04:49.637Z,100912.00
2019-06-08T05:07:19.280Z,100896.00
2019-06-08T05:09:49.511Z,100930.00
2019-06-08T05:12:19.132Z,100935.00
2019-06-08T05:14:49.235Z,100927.00
2019-06-08T05:17:18.761Z,100941.00
2019-06-08T05:19:50.277Z,100937.00
2019-06-08T05:22:19.502Z,100923.00
2019-06-08T05:24:49.983Z,100941.00
2019-06-08T05:27:19.872Z,100948.00
2019-06-08T05:29:50.108Z,100946.00
2019-06-08T05:32:19.735Z,100952.00
2019-06-08T05:34:49.705Z,100936.00
2019-06-08T05:37:19.355Z,100957.00
2019-06-08T05:39:49.917Z,100947.00
2019-06-08T05:42:19.531Z,100965.00
2019-06-08T05:44:50.398Z,100966.00
2019-06-08T05:47:19.983Z,100966.00
2019-06-08T05:49:49.951Z,100977.00
2019-06-08T05:52:19.706Z,100963.00
2019-06-08T05:54:52.466Z,100984.00
2019-06-08T05:57:21.925Z,100992.00
2019-06-08T05:59:51.435Z,100997.00
2019-06-08T06:02:20.976Z,100996.00
2019-06-08T06:04:52.103Z,101006.00
2019-06-08T06:07:21.732Z,101006.00
2019-06-08T06:09:51.230Z,100994.00
2019-06-08T06:12:20.757Z,101006.00
2019-06-08T06:14:51.270Z,101011.00
2019-06-08T06:17:20.775Z,101022.00
2019-06-08T06:19:51.516Z,101018.00
2019-06-08T06:22:21.064Z,101002.00
2019-06-08T06:24:51.628Z,101014.00
2019-06-08T06:27:21.571Z,101023.00
2019-06-08T06:29:52.034Z,101019.00
2019-06-08T06:32:21.685Z,101028.00
2019-06-08T06:34:52.177Z,101034.00
2019-06-08T06:37:21.919Z,101031.00
2019-06-08T06:39:52.277Z,101039.00
2019-06-08T06:42:24.774Z,101042.00
2019-06-08T06:44:53.204Z,101046.00
2019-06-08T06:47:22.882Z,101055.00
2019-06-08T06:49:52.626Z,101049.00
2019-06-08T06:52:22.286Z,101060.00
2019-06-08T06:54:52.984Z,101061.00
2019-06-08T06:57:22.841Z,101064.00
2019-06-08T06:59:52.358Z,101064.00
2019-06-08T07:02:22.808Z,101070.00
2019-06-08T07:04:52.406Z,101063.00
2019-06-08T07:07:21.963Z,101076.00
2019-06-08T07:09:52.760Z,101082.00
2019-06-08T07:12:22.467Z,101084.00
2019-06-08T07:14:53.034Z,101092.00
2019-06-08T07:17:25.498Z,101089.00
2019-06-08T07:19:55.016Z,101100.00
2019-06-08T07:22:24.726Z,101104.00
2019-06-08T07:24:54.523Z,101094.00
2019-06-08T07:27:24.246Z,101105.00
2019-06-08T07:29:54.818Z,101116.00
2019-06-08T07:32:24.543Z,101119.00
2019-06-08T07:34:55.170Z,101110.00
2019-06-08T07:37:24.961Z,101123.00
2019-06-08T07:39:55.938Z,101131.00
2019-06-08T07:42:25.823Z,101122.00
2019-06-08T07:44:55.796Z,101135.00
2019-06-08T07:47:25.371Z,101116.00
2019-06-08T07:49:55.581Z,101129.00
2019-06-08T07:52:25.348Z,101146.00
2019-06-08T07:54:55.061Z,101137.00
2019-06-08T07:57:24.535Z,101149.00
2019-06-08T07:59:54.559Z,101142.00
2019-06-08T08:02:24.567Z,101146.00
2019-06-08T08:04:54.598Z,101126.00
2019-06-08T08:07:24.183Z,101142.00
2019-06-08T08:09:54.945Z,101143.00
2019-06-08T08:12:24.463Z,101157.00
2019-06-08T08:14:55.226Z,101172.00
2019-06-08T08:17:25.008Z,101126.00
2019-06-08T08:19:55.172Z,101151.00
2019-06-08T08:22:26.329Z,101151.00
2019-06-08T08:25:01.313Z,101145.00
2019-06-08T08:27:28.102Z,101135.00
2019-06-08T08:29:59.759Z,101144.00
2019-06-08T08:32:29.142Z,101135.00
2019-06-08T08:35:01.059Z,101137.00
2019-06-08T08:37:29.923Z,101146.00
2019-06-08T08:40:01.359Z,101147.00
2019-06-08T08:42:30.581Z,101170.00
2019-06-08T08:45:05.181Z,101161.00
2019-06-08T08:47:31.243Z,101162.00
2019-06-08T08:50:02.136Z,101167.00
2019-06-08T08:52:37.057Z,101178.00
2019-06-08T08:55:02.961Z,101177.00
2019-06-08T08:57:32.524Z,101182.00
2019-06-08T09:00:04.883Z,101191.00
2019-06-08T09:02:33.319Z,101194.00
2019-06-08T09:05:03.701Z,101202.00
2019-06-08T09:07:33.582Z,101217.00
2019-06-08T09:10:03.887Z,101206.00
2019-06-08T09:12:33.875Z,101227.00
2019-06-08T09:15:04.202Z,101223.00
2019-06-08T09:17:33.744Z,101225.00
2019-06-08T09:20:03.945Z,101235.00
2019-06-08T09:22:47.167Z,101245.00
2019-06-08T09:25:08.759Z,101239.00
2019-06-08T09:27:38.422Z,101262.00
2019-06-08T09:30:08.974Z,101246.00
2019-06-08T09:32:38.504Z,101260.00
2019-06-08T09:35:09.346Z,101269.00
2019-06-08T09:37:39.088Z,101271.00
2019-06-08T09:40:08.779Z,101275.00
2019-06-08T09:42:38.383Z,101275.00
2019-06-08T09:45:11.597Z,101294.00
2019-06-08T09:47:41.094Z,101288.00
2019-06-08T09:50:10.991Z,101290.00
2019-06-08T09:52:41.337Z,101290.00
2019-06-08T09:55:11.823Z,101302.00
2019-06-08T09:57:41.297Z,101299.00
2019-06-08T10:00:18.034Z,101306.00
2019-06-08T10:02:42.621Z,101310.00
2019-06-08T10:05:12.506Z,101318.00
2019-06-08T10:07:42.007Z,101316.00
2019-06-08T10:10:11.681Z,101310.00
2019-06-08T10:12:41.355Z,101322.00
2019-06-08T10:15:11.689Z,101327.00
2019-06-08T10:17:41.096Z,101330.00
2019-06-08T10:20:11.164Z,101330.00
2019-06-08T10:22:40.672Z,101338.00
2019-06-08T10:25:11.291Z,101342.00
2019-06-08T10:27:40.965Z,101340.00
2019-06-08T10:30:12.229Z,101346.00
2019-06-08T10:32:41.666Z,101336.00
2019-06-08T10:35:12.859Z,101338.00
2019-06-08T10:37:42.317Z,101345.00
2019-06-08T10:40:14.167Z,101357.00
2019-06-08T10:42:43.810Z,101342.00
2019-06-08T10:45:15.023Z,101350.00
2019-06-08T10:47:47.752Z,101362.00
2019-06-08T10:50:19.142Z,101356.00
2019-06-08T10:52:48.619Z,101366.00
2019-06-08T10:55:19.105Z,101372.00
2019-06-08T10:57:48.695Z,101374.00
2019-06-08T11:00:28.206Z,101384.00
2019-06-08T11:03:01.339Z,101393.00
2019-06-08T11:05:28.442Z,101384.00
2019-06-08T11:07:59.345Z,101397.00
2019-06-08T11:10:29.323Z,101397.00
2019-06-08T11:13:05.213Z,101406.00
2019-06-08T11:15:30.149Z,101404.00
2019-06-08T11:18:03.098Z,101407.00
2019-06-08T11:20:30.884Z,101409.00
2019-06-08T11:23:02.082Z,101407.00
2019-06-08T11:25:31.579Z,101408.00
2019-06-08T11:28:01.825Z,101405.00
2019-06-08T11:30:31.494Z,101409.00
2019-06-08T11:33:02.090Z,101408.00
2019-06-08T11:35:31.550Z,101407.00
2019-06-08T11:38:02.203Z,101414.00
2019-06-08T11:40:31.798Z,101410.00
2019-06-08T11:43:02.284Z,101420.00
2019-06-08T11:45:31.838Z,101417.00
2019-06-08T11:48:02.727Z,101419.00
2019-06-08T11:50:41.995Z,101424.00
2019-06-08T11:53:12.660Z,101421.00
2019-06-08T11:55:42.315Z,101421.00
2019-06-08T11:58:13.650Z,101433.00
2019-06-08T12:01:00.846Z,101429.00
2019-06-08T12:03:30.429Z,101447.00
2019-06-08T12:06:02.025Z,101448.00
2019-06-08T12:08:31.792Z,101450.00
2019-06-08T12:11:02.575Z,101446.00
2019-06-08T12:13:32.967Z,101446.00
2019-06-08T12:16:03.057Z,101457.00
2019-06-08T12:18:32.787Z,101450.00
2019-06-08T12:21:03.696Z,101456.00
2019-06-08T12:23:33.394Z,101455.00
2019-06-08T12:26:03.951Z,101463.00
2019-06-08T12:28:33.507Z,101459.00
2019-06-08T12:31:02.997Z,101467.00
2019-06-08T12:33:32.477Z,101456.00
2019-06-08T12:36:02.093Z,101464.00
2019-06-08T12:38:34.473Z,101465.00
2019-06-08T12:41:02.842Z,101472.00
2019-06-08T12:43:32.303Z,101461.00
2019-06-08T12:46:01.837Z,101463.00
2019-06-08T12:48:31.356Z,101462.00
2019-06-08T12:51:00.930Z,101471.00
2019-06-08T12:53:30.425Z,101469.00
2019-06-08T12:55:59.937Z,101453.00
2019-06-08T12:58:29.422Z,101440.00
2019-06-08T13:00:58.938Z,101453.00
2019-06-08T13:03:29.881Z,101451.00
2019-06-08T13:05:59.518Z,101452.00
2019-06-08T13:08:29.046Z,101448.00
2019-06-08T13:11:00.430Z,101450.00
2019-06-08T13:13:29.735Z,101458.00
2019-06-08T13:15:59.234Z,101452.00
2019-06-08T13:18:28.901Z,101444.00
2019-06-08T13:21:00.396Z,101453.00
2019-06-08T13:23:29.575Z,101449.00
2019-06-08T13:25:59.051Z,101458.00
2019-06-08T13:28:28.543Z,101456.00
2019-06-08T13:30:58.289Z,101457.00
2019-06-08T13:33:28.217Z,101451.00
2019-06-08T13:35:58.127Z,101452.00
2019-06-08T13:38:27.898Z,101459.00
2019-06-08T13:40:58.924Z,101453.00
2019-06-08T13:43:28.493Z,101462.00
2019-06-08T13:45:58.465Z,101455.00
2019-06-08T13:48:27.994Z,101461.00
2019-06-08T13:50:59.175Z,101455.00
2019-06-08T13:53:31.680Z,101476.00
2019-06-08T13:56:00.036Z,101461.00
2019-06-08T13:58:33.101Z,101474.00
2019-06-08T14:01:00.841Z,101482.00
2019-06-08T14:03:30.337Z,101489.00
2019-06-08T14:05:59.815Z,101472.00
2019-06-08T14:08:32.874Z,101522.00
2019-06-08T14:11:02.372Z,101561.00
2019-06-08T14:13:34.681Z,101577.00
2019-06-08T14:16:03.154Z,101576.00
2019-06-08T14:18:34.286Z,101601.00
2019-06-08T14:21:04.014Z,101565.00
2019-06-08T14:23:33.484Z,101555.00
2019-06-08T14:26:03.056Z,101543.00
2019-06-08T14:28:32.632Z,101544.00
2019-06-08T14:31:02.103Z,101546.00
2019-06-08T14:33:33.426Z,101533.00
2019-06-08T14:36:02.795Z,101547.00
2019-06-08T14:38:38.678Z,101548.00
2019-06-08T14:41:03.502Z,101564.00
2019-06-08T14:43:33.041Z,101558.00
2019-06-08T14:46:02.549Z,101554.00
2019-06-08T14:48:33.868Z,101555.00
2019-06-08T14:51:03.252Z,101575.00
2019-06-08T14:53:32.824Z,101581.00
2019-06-08T14:56:08.091Z,101613.00
2019-06-08T14:58:35.027Z,101625.00
2019-06-08T15:01:04.836Z,101609.00
2019-06-08T15:03:34.286Z,101598.00
2019-06-08T15:06:03.919Z,101602.00
2019-06-08T15:08:33.488Z,101608.00
2019-06-08T15:11:03.013Z,101625.00
2019-06-08T15:13:32.481Z,101626.00
2019-06-08T15:16:01.973Z,101643.00
2019-06-08T15:18:31.895Z,101643.00
2019-06-08T15:21:01.435Z,101639.00
2019-06-08T15:23:32.664Z,101630.00
2019-06-08T15:26:02.105Z,101633.00
2019-06-08T15:28:36.012Z,101651.00
2019-06-08T15:31:02.783Z,101655.00
2019-06-08T15:33:33.681Z,101660.00
2019-06-08T15:36:03.356Z,101674.00
2019-06-08T15:38:33.537Z,101673.00
2019-06-08T15:41:03.184Z,101683.00
2019-06-08T15:43:36.864Z,101694.00
2019-06-08T15:46:04.108Z,101698.00
2019-06-08T15:48:34.239Z,101688.00
2019-06-08T15:51:03.888Z,101669.00
2019-06-08T15:53:34.158Z,101664.00
2019-06-08T15:56:03.788Z,101668.00
2019-06-08T15:58:33.994Z,101654.00
2019-06-08T16:01:03.502Z,101645.00
2019-06-08T16:03:33.558Z,101653.00
2019-06-08T16:06:03.150Z,101658.00
2019-06-08T16:08:36.549Z,101651.00
2019-06-08T16:11:03.908Z,101644.00
2019-06-08T16:13:34.726Z,101651.00
2019-06-08T16:16:04.569Z,101654.00
2019-06-08T16:18:33.990Z,101644.00
2019-06-08T16:21:03.578Z,101647.00
2019-06-08T16:23:33.681Z,101648.00
2019-06-08T16:26:03.364Z,101646.00
2019-06-08T16:28:34.109Z,101639.00
2019-06-08T16:31:05.601Z,101652.00
2019-06-08T16:33:35.472Z,101660.00
2019-06-08T16:36:05.068Z,101658.00
2019-06-08T16:38:34.534Z,101652.00
2019-06-08T16:41:04.077Z,101656.00
2019-06-08T16:43:34.791Z,101654.00
2019-06-08T16:46:04.851Z,101658.00
2019-06-08T16:48:34.677Z,101667.00
2019-06-08T16:51:04.413Z,101653.00
2019-06-08T16:53:34.237Z,101659.00
2019-06-08T16:56:03.732Z,101659.00
2019-06-08T16:58:34.289Z,101656.00
2019-06-08T17:01:04.193Z,101663.00
2019-06-08T17:03:34.831Z,101660.00
2019-06-08T17:06:04.582Z,101658.00
2019-06-08T17:08:37.567Z,101666.00
2019-06-08T17:11:05.580Z,101658.00
2019-06-08T17:13:36.085Z,101657.00
2019-06-08T17:16:05.906Z,101658.00
2019-06-08T17:18:36.235Z,101656.00
2019-06-08T17:21:06.617Z,101662.00
2019-06-08T17:23:36.511Z,101652.00
2019-06-08T17:26:06.557Z,101662.00
2019-06-08T17:28:37.126Z,101660.00
2019-06-08T17:31:06.789Z,101663.00
2019-06-08T17:33:37.431Z,101660.00
2019-06-08T17:36:06.952Z,101661.00
2019-06-08T17:38:37.203Z,101662.00
2019-06-08T17:41:06.711Z,101671.00
2019-06-08T17:43:38.168Z,101671.00
2019-06-08T17:46:07.628Z,101676.00
2019-06-08T17:48:38.555Z,101669.00
2019-06-08T17:51:08.311Z,101681.00
2019-06-08T17:53:39.074Z,101675.00
2019-06-08T17:56:08.705Z,101682.00
2019-06-08T17:58:39.594Z,101677.00
2019-06-08T18:01:09.316Z,101686.00
2019-06-08T18:03:41.049Z,101700.00
2019-06-08T18:06:10.169Z,101702.00
2019-06-08T18:08:41.943Z,101693.00
2019-06-08T18:11:10.876Z,101702.00
2019-06-08T18:13:42.515Z,101711.00
2019-06-08T18:16:11.570Z,101708.00
2019-06-08T18:18:42.308Z,101704.00
2019-06-08T18:21:12.213Z,101700.00
2019-06-08T18:23:43.602Z,101714.00
2019-06-08T18:26:13.103Z,101706.00
2019-06-08T18:28:45.226Z,101706.00
2019-06-08T18:31:18.032Z,101704.00
2019-06-08T18:33:50.123Z,101700.00
2019-06-08T18:36:18.864Z,101694.00
2019-06-08T18:38:48.735Z,101699.00
2019-06-08T18:41:18.294Z,101698.00
2019-06-08T18:43:51.918Z,101706.00
2019-06-08T18:46:19.809Z,101702.00
2019-06-08T18:48:51.257Z,101705.00
2019-06-08T18:51:20.817Z,101714.00
2019-06-08T18:54:07.264Z,101716.00
2019-06-08T18:56:21.586Z,101719.00
2019-06-08T18:58:53.623Z,101719.00
2019-06-08T19:01:23.742Z,101718.00
2019-06-08T19:03:53.618Z,101733.00
2019-06-08T19:06:24.384Z,101739.00
2019-06-08T19:08:54.949Z,101743.00
2019-06-08T19:11:24.525Z,101746.00
2019-06-08T19:13:54.337Z,101749.00
2019-06-08T19:16:23.862Z,101749.00
2019-06-08T19:18:53.354Z,101756.00
2019-06-08T19:21:22.946Z,101761.00
2019-06-08T19:23:52.393Z,101772.00
2019-06-08T19:26:21.992Z,101771.00
2019-06-08T19:28:54.255Z,101773.00
2019-06-08T19:31:23.882Z,101783.00
2019-06-08T19:33:53.660Z,101779.00
2019-06-08T19:36:27.835Z,101794.00
2019-06-08T19:38:57.732Z,101795.00
2019-06-08T19:41:28.341Z,101804.00
2019-06-08T19:43:58.481Z,101806.00
2019-06-08T19:46:27.938Z,101806.00
2019-06-08T19:48:58.975Z,101818.00
2019-06-08T19:51:28.829Z,101812.00
2019-06-08T19:53:58.553Z,101817.00
2019-06-08T19:56:28.893Z,101820.00
2019-06-08T19:59:04.483Z,101828.00
2019-06-08T20:01:29.598Z,101825.00
2019-06-08T20:04:01.240Z,101823.00
2019-06-08T20:06:31.179Z,101826.00
2019-06-08T20:09:00.656Z,101835.00
2019-06-08T20:11:30.697Z,101840.00
2019-06-08T20:14:00.151Z,101842.00
2019-06-08T20:16:29.628Z,101851.00
2019-06-08T20:18:59.218Z,101846.00
2019-06-08T20:21:28.759Z,101857.00
2019-06-08T20:24:01.811Z,101855.00
2019-06-08T20:26:31.336Z,101862.00
2019-06-08T20:29:12.158Z,101870.00
2019-06-08T20:31:33.543Z,101872.00
2019-06-08T20:34:03.172Z,101870.00
2019-06-08T20:36:32.700Z,101870.00
2019-06-08T20:39:02.173Z,101875.00
2019-06-08T20:41:31.661Z,101873.00
2019-06-08T20:44:01.163Z,101878.00
2019-06-08T20:46:30.655Z,101874.00
2019-06-08T20:49:00.101Z,101880.00
2019-06-08T20:51:29.581Z,101882.00
2019-06-08T20:53:59.167Z,101884.00
2019-06-08T20:56:28.650Z,101882.00
2019-06-08T20:58:58.225Z,101895.00
2019-06-08T21:01:28.068Z,101887.00
2019-06-08T21:03:57.595Z,101893.00
2019-06-08T21:06:27.873Z,101897.00
2019-06-08T21:08:59.770Z,101895.00
2019-06-08T21:11:28.944Z,101895.00
2019-06-08T21:13:58.436Z,101901.00
2019-06-08T21:16:27.953Z,101904.00
2019-06-08T21:18:57.966Z,101906.00
2019-06-08T21:21:28.315Z,101905.00
2019-06-08T21:24:00.984Z,101908.00
2019-06-08T21:26:29.257Z,101906.00
2019-06-08T21:29:00.326Z,101908.00
2019-06-08T21:31:29.982Z,101912.00
2019-06-08T21:34:00.844Z,101906.00
2019-06-08T21:36:30.494Z,101903.00
2019-06-08T21:39:02.343Z,101911.00
2019-06-08T21:41:31.118Z,101909.00
2019-06-08T21:44:02.332Z,101911.00
2019-06-08T21:46:31.910Z,101913.00
2019-06-08T21:49:01.385Z,101907.00
2019-06-08T21:51:31.006Z,101912.00
2019-06-08T21:54:00.631Z,101905.00
2019-06-08T21:56:30.104Z,101906.00
2019-06-08T21:59:01.080Z,101911.00
2019-06-08T22:01:33.472Z,101910.00
2019-06-08T22:04:02.927Z,101913.00
2019-06-08T22:06:32.381Z,101910.00
2019-06-08T22:09:02.971Z,101913.00
2019-06-08T22:11:32.679Z,101920.00
2019-06-08T22:14:03.126Z,101920.00
2019-06-08T22:16:32.806Z,101919.00
2019-06-08T22:19:03.381Z,101924.00
2019-06-08T22:21:33.037Z,101923.00
2019-06-08T22:24:03.618Z,101926.00
2019-06-08T22:26:33.124Z,101917.00
2019-06-08T22:29:03.721Z,101923.00
2019-06-08T22:31:33.289Z,101928.00
2019-06-08T22:34:04.060Z,101920.00
2019-06-08T22:36:33.588Z,101930.00
2019-06-08T22:39:03.794Z,101930.00
2019-06-08T22:41:33.369Z,101928.00
2019-06-08T22:44:03.186Z,101928.00
2019-06-08T22:46:32.773Z,101930.00
2019-06-08T22:49:02.915Z,101927.00
2019-06-08T22:51:33.519Z,101927.00
2019-06-08T22:54:04.011Z,101930.00
2019-06-08T22:56:33.570Z,101928.00
2019-06-08T22:59:04.702Z,101927.00
2019-06-08T23:01:34.243Z,101937.00
2019-06-08T23:04:05.571Z,101941.00
2019-06-08T23:06:35.161Z,101939.00
2019-06-08T23:09:08.512Z,101937.00
2019-06-08T23:11:37.726Z,101937.00
2019-06-08T23:14:12.954Z,101939.00
2019-06-08T23:16:38.594Z,101936.00
2019-06-08T23:19:09.590Z,101941.00
2019-06-08T23:21:39.149Z,101934.00
2019-06-08T23:24:08.737Z,101936.00
2019-06-08T23:26:38.204Z,101943.00
2019-06-08T23:29:09.553Z,101942.00
2019-06-08T23:31:38.976Z,101934.00
2019-06-08T23:34:11.357Z,101945.00
2019-06-08T23:36:51.835Z,101939.00
2019-06-08T23:39:10.896Z,101950.00
2019-06-08T23:41:40.391Z,101947.00
2019-06-08T23:44:10.058Z,101955.00
2019-06-08T23:46:39.612Z,101952.00
2019-06-08T23:49:09.174Z,101954.00
2019-06-08T23:51:38.700Z,101956.00
2019-06-08T23:54:12.062Z,101955.00
2019-06-08T23:56:39.430Z,101966.00
2019-06-08T23:59:09.447Z,101964.00
